Time;durP1;ratioP1;P1;durP2;ratioP2;P2;SDS_P1;SDS_P2;PMS_P1;PMS_P2;Temp;Humidity;BMP_temperature;BMP_pressure;BME280_temperature;BME280_humidity;BME280_pressure;Samples;Min_cycle;Max_cycle;Signal;HPM_P1;HPM_P2
2022/11/30 12:51:47;;;;;;;28.20;18.47;;;;;;;6.59;100.00;99437.94;5109881;28;20548;-79
2022/11/30 12:54:24;;;;;;;24.63;17.90;;;;;;;7.00;100.00;99428.47;5091769;28;40082;-79
2022/11/30 12:56:55;;;;;;;23.07;16.60;;;;;;;7.53;100.00;99439.53;5105635;28;41977;-79
2022/11/30 12:59:32;;;;;;;24.43;16.17;;;;;;;7.90;100.00;99448.53;5091252;28;41807;-80
2022/11/30 13:02:27;;;;;;;21.27;15.33;;;;;;;8.18;99.26;99433.22;5091660;28;41403;-81
2022/11/30 13:05:00;;;;;;;21.60;15.90;;;;;;;8.25;96.10;99418.88;5106883;28;39982;-79
2022/11/30 13:07:34;;;;;;;18.83;14.97;;;;;;;8.49;94.74;99432.78;5091919;28;40814;-79
2022/11/30 13:10:17;;;;;;;21.93;15.80;;;;;;;8.59;92.07;99434.06;5107382;28;42501;-81
2022/11/30 13:12:49;;;;;;;20.53;14.67;;;;;;;8.64;90.75;99418.03;5092653;28;42408;-81
2022/11/30 13:15:20;;;;;;;19.17;14.57;;;;;;;8.76;89.89;99424.53;5107971;28;40959;-79
2022/11/30 13:17:49;;;;;;;19.23;15.23;;;;;;;8.81;89.79;99428.66;5108912;28;41097;-79
2022/11/30 13:20:23;;;;;;;19.80;14.47;;;;;;;8.89;89.68;99431.81;5109044;28;42760;-81
2022/11/30 13:22:59;;;;;;;18.77;14.47;;;;;;;8.88;87.26;99435.41;5108554;28;41500;-79
2022/11/30 13:25:33;;;;;;;20.60;14.87;;;;;;;8.90;87.23;99433.50;5108137;28;38836;-79
2022/11/30 13:28:10;;;;;;;21.00;15.00;;;;;;;8.92;86.91;99439.59;5091623;28;40892;-81
2022/11/30 13:30:44;;;;;;;18.97;14.50;;;;;;;8.85;86.65;99424.97;5091317;28;43269;-81
2022/11/30 13:33:37;;;;;;;18.20;14.03;;;;;;;8.96;85.76;99433.25;5106306;28;42359;-79
2022/11/30 13:36:20;;;;;;;18.60;13.67;;;;;;;8.95;84.88;99444.72;5108000;28;39914;-79
2022/11/30 13:39:09;;;;;;;18.23;14.17;;;;;;;8.82;84.04;99438.31;5108165;28;42005;-80
2022/11/30 13:41:38;;;;;;;19.97;14.20;;;;;;;8.86;83.91;99437.25;5090846;28;42433;-81
2022/11/30 13:44:20;;;;;;;17.07;13.13;;;;;;;8.90;84.63;99440.59;5090488;28;41403;-81
2022/11/30 13:46:50;;;;;;;17.23;12.90;;;;;;;8.85;84.85;99434.66;5090878;28;39127;-80
2022/11/30 13:49:22;;;;;;;18.00;14.13;;;;;;;8.81;84.92;99433.09;5090031;28;41790;-80
2022/11/30 13:51:50;;;;;;;17.03;13.13;;;;;;;8.90;84.44;99445.91;5107637;28;41782;-81
2022/11/30 13:54:42;;;;;;;17.97;13.47;;;;;;;8.90;83.52;99448.53;5107549;28;42427;-79
2022/11/30 13:57:39;;;;;;;17.53;13.33;;;;;;;8.87;83.31;99449.53;5107772;28;38877;-79
2022/11/30 14:00:36;;;;;;;17.70;13.23;;;;;;;8.87;84.02;99449.53;5107536;28;42118;-80
2022/11/30 14:03:24;;;;;;;18.53;13.33;;;;;;;8.88;84.02;99451.25;5091846;28;42183;-83
2022/11/30 14:05:52;;;;;;;18.57;14.20;;;;;;;8.86;83.49;99447.81;5092813;28;41932;-81
2022/11/30 14:08:38;;;;;;;20.70;15.17;;;;;;;8.84;82.95;99454.09;5093556;28;39613;-81
2022/11/30 14:11:42;;;;;;;19.03;14.93;;;;;;;8.80;83.28;99458.63;5076311;28;42540;-83
2022/11/30 14:14:50;;;;;;;20.00;14.10;;;;;;;8.78;83.10;99464.94;5076282;28;43348;-79
2022/11/30 14:17:23;;;;;;;17.70;12.97;;;;;;;8.73;83.22;99462.50;5077069;28;41406;-80
2022/11/30 14:19:52;;;;;;;17.53;13.23;;;;;;;8.38;82.24;99423.63;5091639;28;40091;-80
2022/11/30 14:22:20;;;;;;;17.03;13.03;;;;;;;8.67;82.53;99467.19;5093809;28;40876;-80
2022/11/30 14:24:49;;;;;;;15.70;12.60;;;;;;;8.56;82.65;99450.03;5093199;28;43653;-80
2022/11/30 14:27:22;;;;;;;17.07;13.10;;;;;;;8.63;82.86;99466.47;5093522;28;42100;-80
2022/11/30 14:29:52;;;;;;;20.43;13.17;;;;;;;8.60;83.16;99466.63;5076655;28;38983;-81
2022/11/30 14:32:28;;;;;;;16.57;12.67;;;;;;;8.43;82.83;99438.31;5094799;28;42747;-81
2022/11/30 14:35:03;;;;;;;17.00;12.63;;;;;;;8.45;82.02;99454.09;5076112;28;41605;-81
2022/11/30 14:37:36;;;;;;;18.43;12.83;;;;;;;8.48;82.21;99467.16;5091567;28;42372;-82
2022/11/30 14:40:07;;;;;;;16.37;11.57;;;;;;;8.45;82.01;99468.16;5093729;28;39249;-80
2022/11/30 14:42:36;;;;;;;14.83;11.90;;;;;;;8.42;82.21;99462.13;5094030;28;42283;-80
